Time;durP1;ratioP1;P1;durP2;ratioP2;P2;SDS_P1;SDS_P2;PMS_P1;PMS_P2;Temp;Humidity;BMP_temperature;BMP_pressure;BME280_temperature;BME280_humidity;BME280_pressure;Samples;Min_cycle;Max_cycle;Signal;HPM_P1;HPM_P2
2021/11/22 00:00:39;;;;;;;23.17;8.02;;;4.80;97.20;;;;;;5074061;28;20413;-75
2021/11/22 00:03:05;;;;;;;23.77;7.65;;;4.80;98.00;;;;;;5070868;28;20457;-74
2021/11/22 00:05:31;;;;;;;21.70;7.75;;;4.90;98.50;;;;;;5054003;28;20394;-75
2021/11/22 00:07:56;;;;;;;17.17;7.70;;;5.10;94.00;;;;;;5066447;28;20392;-74
2021/11/22 00:10:22;;;;;;;20.47;6.73;;;5.00;95.00;;;;;;5072018;28;20453;-74
2021/11/22 00:12:48;;;;;;;14.70;5.73;;;5.20;91.60;;;;;;5071064;28;20495;-74
2021/11/22 00:15:16;;;;;;;14.60;6.60;;;5.40;83.20;;;;;;5060998;28;20393;-74
2021/11/22 00:17:42;;;;;;;18.50;5.97;;;5.40;80.10;;;;;;5059549;28;20469;-74
2021/11/22 00:20:13;;;;;;;16.77;5.90;;;5.30;79.20;;;;;;5071445;28;20380;-74
2021/11/22 00:22:40;;;;;;;20.55;6.40;;;5.10;80.70;;;;;;5070408;28;20399;-74
2021/11/22 00:25:06;;;;;;;16.58;6.50;;;5.10;83.50;;;;;;5071062;28;20376;-74
2021/11/22 00:27:32;;;;;;;19.55;6.40;;;5.00;84.00;;;;;;5061985;28;20477;-76
2021/11/22 00:29:58;;;;;;;15.48;5.90;;;4.90;85.50;;;;;;5054539;28;20425;-73
2021/11/22 00:32:24;;;;;;;16.30;6.97;;;4.90;86.10;;;;;;5070075;28;20404;-75
2021/11/22 00:34:55;;;;;;;23.85;6.75;;;4.60;86.10;;;;;;5071220;28;20761;-75
2021/11/22 00:37:23;;;;;;;16.77;6.25;;;4.60;91.20;;;;;;5071404;28;20471;-75
2021/11/22 00:39:49;;;;;;;11.15;5.95;;;4.80;90.00;;;;;;5070295;28;20433;-75
2021/11/22 00:42:15;;;;;;;12.65;5.93;;;4.70;89.40;;;;;;5071360;28;20387;-75
2021/11/22 00:44:41;;;;;;;18.30;5.93;;;4.70;88.30;;;;;;5070218;28;20403;-75
2021/11/22 00:47:08;;;;;;;19.20;6.20;;;4.70;87.50;;;;;;5070925;28;20761;-75
2021/11/22 00:49:34;;;;;;;19.00;5.80;;;4.60;88.90;;;;;;5070979;28;20702;-75
2021/11/22 00:52:00;;;;;;;24.23;6.13;;;4.70;88.90;;;;;;5071916;28;20458;-75
2021/11/22 00:54:26;;;;;;;18.33;5.37;;;4.70;86.60;;;;;;5074404;28;20798;-75
2021/11/22 00:56:52;;;;;;;20.33;5.82;;;4.80;85.80;;;;;;5073677;28;20391;-74
2021/11/22 00:59:17;;;;;;;11.73;5.40;;;4.80;85.40;;;;;;5070986;28;20387;-74
2021/11/22 01:01:45;;;;;;;23.00;5.83;;;4.90;84.70;;;;;;5055122;28;20950;-75
2021/11/22 01:04:12;;;;;;;17.05;6.00;;;4.90;84.70;;;;;;5054072;28;20393;-75
2021/11/22 01:06:37;;;;;;;27.95;6.43;;;5.10;83.50;;;;;;5053495;28;20431;-75
2021/11/22 01:09:03;;;;;;;19.17;6.25;;;5.10;83.30;;;;;;5060042;28;20396;-75
2021/11/22 01:11:29;;;;;;;20.08;6.03;;;5.20;83.00;;;;;;5070130;28;20403;-76
2021/11/22 01:13:55;;;;;;;16.80;5.53;;;5.20;84.00;;;;;;5071790;28;20518;-75
2021/11/22 01:16:20;;;;;;;14.65;5.55;;;5.30;84.10;;;;;;5061869;28;20400;-75
2021/11/22 01:18:46;;;;;;;12.17;6.10;;;5.30;84.50;;;;;;5052490;28;20385;-74
2021/11/22 01:21:12;;;;;;;13.63;5.43;;;5.50;81.50;;;;;;5051427;28;20814;-75
2021/11/22 01:23:37;;;;;;;14.73;5.50;;;5.50;80.00;;;;;;5058822;28;20391;-75
2021/11/22 01:26:03;;;;;;;19.67;5.65;;;5.60;79.00;;;;;;5070499;28;20807;-75
2021/11/22 01:28:29;;;;;;;12.32;5.60;;;5.60;79.90;;;;;;5071131;28;20921;-76
2021/11/22 01:30:56;;;;;;;18.70;5.22;;;5.70;78.20;;;;;;5071689;28;20383;-74
2021/11/22 01:33:22;;;;;;;21.25;6.30;;;5.80;77.90;;;;;;5071067;28;20408;-76
2021/11/22 01:35:48;;;;;;;21.37;5.70;;;5.80;77.50;;;;;;5073201;28;20392;-74
2021/11/22 01:38:14;;;;;;;21.40;5.95;;;5.90;75.30;;;;;;5074674;28;20416;-75
2021/11/22 01:40:41;;;;;;;16.73;5.70;;;6.00;73.50;;;;;;5072639;28;20390;-76
2021/11/22 01:43:07;;;;;;;15.65;5.80;;;6.00;72.40;;;;;;5070946;28;20388;-75
2021/11/22 01:45:33;;;;;;;18.35;6.65;;;5.90;72.50;;;;;;5071911;28;20388;-75
2021/11/22 01:48:00;;;;;;;20.67;7.40;;;5.80;72.30;;;;;;5071031;28;20468;-75
2021/11/22 01:50:27;;;;;;;19.55;8.13;;;5.80;75.50;;;;;;5071064;28;20375;-75
2021/11/22 01:52:54;;;;;;;20.65;9.38;;;5.80;75.30;;;;;;5071147;28;20403;-75
2021/11/22 01:55:22;;;;;;;21.05;11.23;;;5.90;76.30;;;;;;5069822;28;20392;-75
2021/11/22 01:57:49;;;;;;;23.80;12.70;;;5.80;74.80;;;;;;5051259;28;20412;-75
2021/11/22 02:00:22;;;;;;;23.45;11.82;;;5.80;76.30;;;;;;5050887;28;20459;-75
2021/11/22 02:02:48;;;;;;;24.55;13.18;;;5.90;77.80;;;;;;5050758;28;20397;-74
2021/11/22 02:05:13;;;;;;;31.50;12.87;;;6.00;77.40;;;;;;5050433;28;20385;-73
2021/11/22 02:07:39;;;;;;;35.67;14.32;;;6.00;78.50;;;;;;5059627;28;20441;-75
2021/11/22 02:10:06;;;;;;;31.15;14.93;;;6.10;77.30;;;;;;5061857;28;20399;-75
2021/11/22 02:12:33;;;;;;;26.43;14.50;;;6.00;77.10;;;;;;5074096;28;20430;-73
2021/11/22 02:14:59;;;;;;;25.60;14.80;;;6.20;76.20;;;;;;5086988;28;20463;-75
2021/11/22 02:17:25;;;;;;;31.50;16.30;;;6.20;76.30;;;;;;5088686;28;20406;-74
2021/11/22 02:20:02;;;;;;;31.90;15.80;;;6.20;77.60;;;;;;5051337;28;20480;-74
2021/11/22 02:22:29;;;;;;;29.42;14.88;;;6.30;75.90;;;;;;5060056;28;20394;-74
2021/11/22 02:24:55;;;;;;;31.52;14.82;;;6.40;74.90;;;;;;5050014;28;20443;-74
2021/11/22 02:27:21;;;;;;;26.23;14.63;;;6.50;73.30;;;;;;5057591;28;20399;-74
2021/11/22 02:29:46;;;;;;;26.77;14.50;;;6.50;72.30;;;;;;5069525;28;20379;-75
2021/11/22 02:32:12;;;;;;;28.55;15.25;;;6.50;73.00;;;;;;5073138;28;20868;-75
2021/11/22 02:34:38;;;;;;;34.15;16.63;;;6.60;73.00;;;;;;5072323;28;20384;-74
2021/11/22 02:37:05;;;;;;;31.92;15.63;;;6.60;72.90;;;;;;5083725;28;20383;-75
2021/11/22 02:39:30;;;;;;;26.85;15.50;;;6.60;72.40;;;;;;5073783;28;20438;-75
2021/11/22 02:41:56;;;;;;;30.92;17.00;;;6.60;73.50;;;;;;5073622;28;20431;-75
2021/11/22 02:44:21;;;;;;;28.83;15.68;;;6.60;73.20;;;;;;5074105;28;20379;-75
2021/11/22 02:46:47;;;;;;;31.52;16.27;;;6.60;73.80;;;;;;5073439;28;20384;-75
2021/11/22 02:49:13;;;;;;;29.87;16.13;;;6.70;73.60;;;;;;5073258;28;20399;-73
2021/11/22 02:51:42;;;;;;;25.83;15.20;;;6.70;74.40;;;;;;5072629;28;20496;-73
2021/11/22 02:54:07;;;;;;;28.98;16.00;;;6.70;72.10;;;;;;5073379;28;20441;-74
2021/11/22 02:56:34;;;;;;;23.85;14.50;;;6.70;72.40;;;;;;5073521;28;20415;-74
2021/11/22 02:59:03;;;;;;;29.38;16.55;;;6.80;71.90;;;;;;5073126;28;20452;-73
2021/11/22 03:01:29;;;;;;;28.17;14.73;;;6.80;71.80;;;;;;5057748;28;20396;-74
2021/11/22 03:03:55;;;;;;;26.73;15.07;;;6.80;70.90;;;;;;5062841;28;20400;-74
2021/11/22 03:06:22;;;;;;;25.70;13.50;;;6.80;70.40;;;;;;5077693;28;20383;-74
2021/11/22 03:08:48;;;;;;;27.07;13.97;;;6.90;70.30;;;;;;5077323;28;20430;-74
2021/11/22 03:11:15;;;;;;;25.20;13.63;;;6.90;70.90;;;;;;5070338;28;20432;-74
2021/11/22 03:13:43;;;;;;;29.20;14.97;;;6.90;70.30;;;;;;5060657;28;20492;-74
2021/11/22 03:16:10;;;;;;;23.10;13.20;;;6.90;72.00;;;;;;5057672;28;21017;-74
2021/11/22 03:18:35;;;;;;;23.50;13.82;;;6.90;71.00;;;;;;5063720;28;20427;-74
2021/11/22 03:21:02;;;;;;;22.67;12.53;;;7.00;69.70;;;;;;5071032;28;20450;-75
2021/11/22 03:23:29;;;;;;;22.55;11.98;;;7.00;68.20;;;;;;5072278;28;20407;-74
2021/11/22 03:25:54;;;;;;;19.87;12.53;;;7.00;68.80;;;;;;5073097;28;20456;-74
2021/11/22 03:28:22;;;;;;;24.45;12.70;;;7.00;69.70;;;;;;5059496;28;20937;-74
2021/11/22 03:30:48;;;;;;;19.50;11.57;;;7.00;70.40;;;;;;5054578;28;20390;-74
2021/11/22 03:33:14;;;;;;;21.42;12.40;;;7.00;69.30;;;;;;5070978;28;20407;-74
2021/11/22 03:35:41;;;;;;;20.27;12.10;;;7.00;68.20;;;;;;5072465;28;20430;-74
2021/11/22 03:38:08;;;;;;;20.30;11.93;;;7.00;68.40;;;;;;5072819;28;20387;-74
2021/11/22 03:40:35;;;;;;;19.83;12.30;;;7.00;69.70;;;;;;5072471;28;20380;-75
2021/11/22 03:45:37;;;;;;;21.85;12.18;;;7.10;70.00;;;;;;5073040;28;20506;-74
2021/11/22 03:48:04;;;;;;;22.25;12.02;;;7.10;66.10;;;;;;5072730;28;20502;-74
2021/11/22 03:50:29;;;;;;;24.30;13.43;;;7.10;67.00;;;;;;5072699;28;20764;-74
2021/11/22 03:52:55;;;;;;;21.85;12.88;;;7.00;66.90;;;;;;5071433;28;20411;-74
2021/11/22 03:55:21;;;;;;;23.42;13.85;;;7.00;68.20;;;;;;5072631;28;20483;-74
2021/11/22 03:57:46;;;;;;;23.33;13.60;;;7.10;67.80;;;;;;5053204;28;20413;-74
2021/11/22 04:00:15;;;;;;;22.37;13.50;;;7.10;66.20;;;;;;5067100;28;20868;-75
2021/11/22 04:02:41;;;;;;;21.45;12.95;;;7.10;67.10;;;;;;5072106;28;20410;-74
2021/11/22 04:05:07;;;;;;;22.13;13.02;;;7.10;66.60;;;;;;5072345;28;20407;-74
2021/11/22 04:07:33;;;;;;;21.85;13.77;;;7.00;67.00;;;;;;5071722;28;20471;-74
2021/11/22 04:09:59;;;;;;;20.03;12.47;;;7.10;67.70;;;;;;5072454;28;20379;-74
2021/11/22 04:12:25;;;;;;;24.52;13.10;;;7.10;64.50;;;;;;5071644;28;20407;-74
2021/11/22 04:14:51;;;;;;;21.92;13.07;;;7.20;62.80;;;;;;5071861;28;20417;-74
2021/11/22 04:17:17;;;;;;;23.02;12.90;;;7.20;61.80;;;;;;5058253;28;20425;-74
2021/11/22 04:19:44;;;;;;;19.73;13.90;;;7.10;61.50;;;;;;5062255;28;20484;-74
2021/11/22 04:22:10;;;;;;;20.58;14.18;;;7.10;61.00;;;;;;5071924;28;20388;-75
2021/11/22 04:24:36;;;;;;;23.27;14.82;;;7.10;61.40;;;;;;5071762;28;20790;-75
2021/11/22 04:27:02;;;;;;;23.50;15.13;;;7.10;62.90;;;;;;5071378;28;20401;-73
2021/11/22 04:29:28;;;;;;;22.15;15.35;;;7.10;60.50;;;;;;5064165;28;20409;-74
2021/11/22 04:31:54;;;;;;;22.23;15.00;;;7.20;61.10;;;;;;5051144;28;20393;-73
2021/11/22 04:34:20;;;;;;;22.38;14.27;;;7.20;58.30;;;;;;5051181;28;20437;-74
2021/11/22 04:36:45;;;;;;;19.42;14.00;;;7.30;58.10;;;;;;5051595;28;20385;-74
2021/11/22 04:39:11;;;;;;;20.53;12.90;;;7.30;58.00;;;;;;5052211;28;20459;-74
2021/11/22 04:41:37;;;;;;;15.20;10.40;;;7.30;57.30;;;;;;5080820;28;20403;-74
2021/11/22 04:44:03;;;;;;;17.48;10.90;;;7.20;56.50;;;;;;5084022;28;20418;-76
2021/11/22 04:46:30;;;;;;;17.45;12.02;;;7.20;58.30;;;;;;5076863;28;20387;-75
2021/11/22 04:48:55;;;;;;;15.98;10.98;;;7.20;58.30;;;;;;5074860;28;20459;-75
2021/11/22 04:51:21;;;;;;;15.38;10.93;;;7.30;55.90;;;;;;5053393;28;20425;-75
2021/11/22 04:53:47;;;;;;;15.82;9.98;;;7.30;55.50;;;;;;5051214;28;20409;-75
2021/11/22 04:56:12;;;;;;;15.93;10.00;;;7.20;56.00;;;;;;5051406;28;20443;-75
2021/11/22 04:58:38;;;;;;;15.37;10.47;;;7.30;55.90;;;;;;5064445;28;20419;-76
2021/11/22 05:01:04;;;;;;;15.20;9.37;;;7.30;54.50;;;;;;5050132;28;20425;-74
2021/11/22 05:03:29;;;;;;;14.70;9.65;;;7.30;52.80;;;;;;5050275;28;20404;-75
2021/11/22 05:05:55;;;;;;;12.95;9.10;;;7.30;53.00;;;;;;5050930;28;20424;-74
2021/11/22 05:08:21;;;;;;;13.45;9.70;;;7.30;53.30;;;;;;5050559;28;20385;-75
2021/11/22 05:10:46;;;;;;;15.30;9.77;;;7.20;54.30;;;;;;5067521;28;20992;-75
2021/11/22 05:13:15;;;;;;;15.87;9.30;;;7.20;54.10;;;;;;5070712;28;20415;-75
2021/11/22 05:15:41;;;;;;;13.75;9.88;;;7.20;53.70;;;;;;5072464;28;20391;-75
2021/11/22 05:18:09;;;;;;;13.90;8.90;;;7.20;54.40;;;;;;5070663;28;20995;-75
2021/11/22 05:20:36;;;;;;;10.80;8.32;;;7.20;54.30;;;;;;5056064;28;20472;-74
2021/11/22 05:23:02;;;;;;;14.15;9.20;;;7.10;55.40;;;;;;5051122;28;20442;-73
2021/11/22 05:25:27;;;;;;;14.75;9.20;;;7.10;55.80;;;;;;5057302;28;20478;-75
2021/11/22 05:27:53;;;;;;;16.70;9.60;;;7.10;54.80;;;;;;5063001;28;20412;-74
2021/11/22 05:30:22;;;;;;;13.00;8.73;;;7.10;55.50;;;;;;5064027;28;20411;-74
2021/11/22 05:32:48;;;;;;;14.10;9.38;;;7.20;54.40;;;;;;5064946;28;20435;-74
2021/11/22 05:35:14;;;;;;;12.27;8.10;;;7.10;53.20;;;;;;5067867;28;20381;-74
2021/11/22 05:37:41;;;;;;;11.65;8.30;;;7.00;54.00;;;;;;5080191;28;20386;-74
2021/11/22 05:40:07;;;;;;;11.50;7.77;;;7.00;53.30;;;;;;5083893;28;20429;-74
2021/11/22 05:42:33;;;;;;;9.93;7.63;;;7.00;52.90;;;;;;5080181;28;20402;-75
2021/11/22 05:44:58;;;;;;;10.17;7.20;;;6.90;53.20;;;;;;5074481;28;20385;-74
2021/11/22 05:47:24;;;;;;;9.83;7.90;;;6.80;52.80;;;;;;5082487;28;20380;-75
2021/11/22 05:49:50;;;;;;;10.00;7.50;;;6.80;53.10;;;;;;5080014;28;20422;-75
2021/11/22 05:52:15;;;;;;;11.50;8.10;;;6.70;53.60;;;;;;5073502;28;20376;-75
2021/11/22 05:54:52;;;;;;;11.23;7.97;;;6.60;55.30;;;;;;5071353;28;20419;-76
2021/11/22 05:57:18;;;;;;;10.00;7.30;;;6.50;55.50;;;;;;5059238;28;20389;-75
2021/11/22 05:59:44;;;;;;;10.10;7.70;;;6.50;55.30;;;;;;5049544;28;20392;-74
2021/11/22 06:02:10;;;;;;;11.50;8.20;;;6.40;55.50;;;;;;5049384;28;20385;-75
2021/11/22 06:04:36;;;;;;;12.07;7.72;;;6.50;56.80;;;;;;5049902;28;20373;-74
2021/11/22 06:07:02;;;;;;;11.63;8.87;;;6.50;55.90;;;;;;5064612;28;20403;-74
2021/11/22 06:09:27;;;;;;;12.90;8.33;;;6.50;56.20;;;;;;5072698;28;20761;-75
2021/11/22 06:11:53;;;;;;;12.00;8.60;;;6.60;55.40;;;;;;5075641;28;21096;-75
2021/11/22 06:14:18;;;;;;;12.18;8.50;;;6.70;54.70;;;;;;5073913;28;20764;-73
2021/11/22 06:16:44;;;;;;;13.10;9.43;;;6.60;55.10;;;;;;5069841;28;20443;-76
2021/11/22 06:19:09;;;;;;;16.65;10.32;;;6.50;56.10;;;;;;5062640;28;20382;-75
2021/11/22 06:21:35;;;;;;;16.70;11.10;;;6.40;57.40;;;;;;5060938;28;20454;-74
2021/11/22 06:24:04;;;;;;;18.80;11.60;;;6.30;56.60;;;;;;5054858;28;20750;-75
2021/11/22 06:26:30;;;;;;;19.17;11.90;;;6.30;55.70;;;;;;5063408;28;20402;-74
2021/11/22 06:28:56;;;;;;;17.00;11.98;;;6.20;55.80;;;;;;5063534;28;20940;-74
2021/11/22 06:31:22;;;;;;;17.73;12.07;;;6.30;55.70;;;;;;5055841;28;20399;-75
2021/11/22 06:33:48;;;;;;;18.30;11.97;;;6.30;55.30;;;;;;5054376;28;20503;-74
2021/11/22 06:36:13;;;;;;;17.45;11.80;;;6.40;56.10;;;;;;5069283;28;20399;-73
2021/11/22 06:38:39;;;;;;;19.65;12.20;;;6.40;56.10;;;;;;5070014;28;20462;-75
2021/11/22 06:41:04;;;;;;;16.45;12.23;;;6.50;55.80;;;;;;5065208;28;20479;-75
2021/11/22 06:43:30;;;;;;;18.35;12.00;;;6.70;53.60;;;;;;5074216;28;20376;-74
2021/11/22 06:45:56;;;;;;;17.98;12.15;;;6.70;52.90;;;;;;5072439;28;20427;-74
2021/11/22 06:48:21;;;;;;;18.03;12.33;;;6.80;52.40;;;;;;5074027;28;20497;-74
2021/11/22 06:50:47;;;;;;;18.57;12.23;;;6.90;53.60;;;;;;5066110;28;20883;-74
2021/11/22 06:53:13;;;;;;;19.80;12.77;;;6.90;53.20;;;;;;5066949;28;20465;-75
2021/11/22 06:55:38;;;;;;;17.45;12.60;;;6.90;52.20;;;;;;5065509;28;20387;-74
2021/11/22 06:58:04;;;;;;;22.33;12.80;;;6.90;53.50;;;;;;5072514;28;20853;-75
2021/11/22 07:00:30;;;;;;;17.58;13.15;;;6.90;52.70;;;;;;5072111;28;20391;-75
2021/11/22 07:02:56;;;;;;;22.97;13.80;;;7.00;52.20;;;;;;5059032;28;20424;-75
2021/11/22 07:05:24;;;;;;;19.23;13.30;;;7.00;51.20;;;;;;5072933;28;20479;-74
2021/11/22 07:07:50;;;;;;;26.45;15.20;;;7.00;52.00;;;;;;5073441;28;20376;-75
2021/11/22 07:10:18;;;;;;;22.83;15.27;;;7.00;52.00;;;;;;5073123;28;20384;-74
2021/11/22 07:12:43;;;;;;;24.47;13.80;;;7.00;52.40;;;;;;5069441;28;20413;-73
2021/11/22 07:15:09;;;;;;;21.85;16.00;;;7.00;51.20;;;;;;5053477;28;20468;-73
2021/11/22 07:17:35;;;;;;;24.58;16.10;;;7.00;52.80;;;;;;5064548;28;20523;-73
2021/11/22 07:20:01;;;;;;;23.67;16.25;;;7.00;52.90;;;;;;5066390;28;20420;-72
2021/11/22 07:22:27;;;;;;;20.83;14.70;;;7.00;52.40;;;;;;5073181;28;20933;-74
2021/11/22 07:24:53;;;;;;;25.30;15.85;;;7.00;51.70;;;;;;5073404;28;20764;-73
2021/11/22 07:27:24;;;;;;;23.38;15.57;;;7.10;51.70;;;;;;5072644;28;20387;-73
2021/11/22 07:29:51;;;;;;;26.38;16.00;;;7.10;52.40;;;;;;5060496;28;20407;-73
2021/11/22 07:32:17;;;;;;;24.60;17.02;;;7.10;51.80;;;;;;5067184;28;20409;-74
2021/11/22 07:34:42;;;;;;;29.17;18.02;;;7.10;50.40;;;;;;5061500;28;20514;-73
2021/11/22 07:37:09;;;;;;;25.17;17.13;;;6.90;50.80;;;;;;5056424;28;20427;-73
2021/11/22 07:39:34;;;;;;;31.05;19.88;;;6.90;50.70;;;;;;5053391;28;20802;-75
2021/11/22 07:42:00;;;;;;;27.87;17.67;;;6.80;52.60;;;;;;5054122;28;20484;-74
2021/11/22 07:44:26;;;;;;;34.47;19.87;;;6.80;51.10;;;;;;5073282;22;20463;-74
2021/11/22 07:46:59;;;;;;;29.02;18.55;;;6.80;52.20;;;;;;5016537;28;20408;-73
2021/11/22 07:49:25;;;;;;;26.90;18.10;;;6.90;52.00;;;;;;5008851;28;20408;-74
2021/11/22 07:51:52;;;;;;;27.58;17.98;;;6.80;50.60;;;;;;5012587;28;20431;-74
2021/11/22 07:54:17;;;;;;;28.92;17.30;;;6.80;50.50;;;;;;5009494;28;20410;-76
2021/11/22 07:56:44;;;;;;;32.33;19.05;;;6.70;50.80;;;;;;4991416;28;20914;-76
2021/11/22 07:59:09;;;;;;;35.20;19.60;;;6.60;51.60;;;;;;4988287;28;20535;-75
2021/11/22 08:01:35;;;;;;;29.45;19.70;;;6.60;52.40;;;;;;4996144;28;20881;-76
2021/11/22 08:04:01;;;;;;;27.77;19.50;;;6.70;52.60;;;;;;4998413;28;20767;-78
2021/11/22 08:06:27;;;;;;;29.73;19.07;;;6.70;53.30;;;;;;4992477;28;20413;-76
2021/11/22 08:08:52;;;;;;;26.37;18.80;;;6.80;51.90;;;;;;4990142;28;20410;-75
2021/11/22 08:13:52;;;;;;;26.42;18.00;;;6.90;49.10;;;;;;4982800;28;20522;-75
2021/11/22 08:16:18;;;;;;;24.98;16.27;;;6.90;49.90;;;;;;4986728;28;20422;-76
2021/11/22 08:18:44;;;;;;;20.98;15.30;;;7.00;48.10;;;;;;4992556;28;20484;-75
2021/11/22 08:21:11;;;;;;;18.70;13.70;;;6.90;48.60;;;;;;4988074;28;20417;-75
2021/11/22 08:23:38;;;;;;;24.10;14.95;;;7.00;46.90;;;;;;4988567;28;20449;-75
2021/11/22 08:26:04;;;;;;;23.05;14.30;;;7.00;47.80;;;;;;4977798;28;20408;-74
2021/11/22 08:28:31;;;;;;;25.83;15.10;;;6.90;47.60;;;;;;4989242;28;20465;-74
2021/11/22 08:30:57;;;;;;;23.58;15.63;;;7.00;50.10;;;;;;4989700;28;20404;-75
2021/11/22 08:33:23;;;;;;;20.25;14.30;;;7.10;49.00;;;;;;4974048;28;20419;-76
2021/11/22 08:35:49;;;;;;;19.45;14.00;;;7.10;47.70;;;;;;4988885;28;20409;-74
2021/11/22 08:38:17;;;;;;;20.90;13.90;;;7.10;47.70;;;;;;4989171;28;20822;-75
2021/11/22 08:40:43;;;;;;;22.80;13.90;;;7.20;47.10;;;;;;4986293;28;20414;-76
2021/11/22 08:43:11;;;;;;;20.10;13.10;;;7.20;46.10;;;;;;4988535;28;20496;-75
2021/11/22 08:45:38;;;;;;;18.95;13.88;;;7.20;47.00;;;;;;4979140;28;20419;-75
2021/11/22 08:48:06;;;;;;;23.42;15.00;;;7.30;45.60;;;;;;4976860;28;20411;-75
2021/11/22 08:50:31;;;;;;;22.85;15.02;;;7.30;46.50;;;;;;4977244;28;20402;-75
2021/11/22 08:52:57;;;;;;;24.77;14.53;;;7.50;46.10;;;;;;4984029;28;20421;-75
2021/11/22 08:55:23;;;;;;;20.35;14.43;;;7.50;45.60;;;;;;4984251;28;20403;-76
2021/11/22 08:57:49;;;;;;;21.40;14.10;;;7.60;45.20;;;;;;4981067;28;20405;-76
2021/11/22 09:00:25;;;;;;;18.67;14.52;;;7.70;44.00;;;;;;4985649;28;20396;-75
2021/11/22 09:02:51;;;;;;;17.58;13.43;;;7.60;43.70;;;;;;4985527;28;20834;-76
2021/11/22 09:05:17;;;;;;;19.30;14.30;;;7.50;43.60;;;;;;4983135;28;20749;-76
2021/11/22 09:07:43;;;;;;;22.50;15.35;;;7.50;44.10;;;;;;4986139;28;20418;-74
2021/11/22 09:10:09;;;;;;;17.40;13.43;;;7.60;45.30;;;;;;4978790;28;20762;-76
2021/11/22 09:12:34;;;;;;;18.63;12.48;;;7.50;43.00;;;;;;4988864;28;20410;-74
2021/11/22 09:15:00;;;;;;;18.63;11.85;;;7.40;43.40;;;;;;4990651;28;20400;-76
2021/11/22 09:17:26;;;;;;;18.40;12.33;;;7.40;44.10;;;;;;4988250;28;20473;-76
2021/11/22 09:19:51;;;;;;;19.57;12.73;;;7.40;43.10;;;;;;4994301;28;20429;-73
2021/11/22 09:22:17;;;;;;;19.05;12.65;;;7.30;43.60;;;;;;4992380;28;20394;-75
2021/11/22 09:24:43;;;;;;;16.95;11.90;;;7.40;42.80;;;;;;4986587;28;20405;-76
2021/11/22 09:27:09;;;;;;;17.60;12.30;;;7.40;42.30;;;;;;4987277;28;20392;-73
2021/11/22 09:29:36;;;;;;;16.70;12.30;;;7.40;43.10;;;;;;4986223;28;20464;-74
2021/11/22 09:32:03;;;;;;;17.85;12.05;;;7.50;42.90;;;;;;4987044;28;20491;-74
2021/11/22 09:34:28;;;;;;;18.50;12.30;;;7.60;42.30;;;;;;4974378;28;20434;-74
2021/11/22 09:36:54;;;;;;;16.38;11.93;;;7.80;41.20;;;;;;4977223;28;20410;-75
2021/11/22 09:39:22;;;;;;;17.58;11.70;;;7.80;40.10;;;;;;4988272;28;20769;-75
2021/11/22 09:41:49;;;;;;;16.05;12.25;;;7.60;40.00;;;;;;4990438;28;20491;-76
2021/11/22 09:44:16;;;;;;;16.95;11.45;;;7.60;41.20;;;;;;4991714;28;20465;-73
2021/11/22 09:46:41;;;;;;;18.13;12.10;;;7.40;41.10;;;;;;4987594;28;20715;-76
2021/11/22 09:49:07;;;;;;;15.55;11.00;;;7.30;42.00;;;;;;4995121;28;20444;-75
2021/11/22 09:51:34;;;;;;;22.85;12.45;;;7.10;42.20;;;;;;4987672;28;20410;-74
2021/11/22 09:54:00;;;;;;;19.50;12.40;;;7.20;43.40;;;;;;4993643;28;20415;-75
2021/11/22 09:56:25;;;;;;;18.20;13.05;;;7.30;42.20;;;;;;4992725;28;20917;-73
2021/11/22 09:58:52;;;;;;;17.50;12.67;;;7.50;42.10;;;;;;4989430;28;20863;-74
2021/11/22 10:01:18;;;;;;;17.98;12.35;;;7.80;41.30;;;;;;4982745;28;20876;-73
2021/11/22 10:04:02;;;;;;;20.67;12.25;;;7.90;39.80;;;;;;4991250;28;20463;-74
2021/11/22 10:06:43;;;;;;;19.30;12.70;;;7.90;39.60;;;;;;4988654;28;20444;-73
2021/11/22 10:09:08;;;;;;;18.03;12.53;;;7.60;40.40;;;;;;4988221;28;20429;-73
2021/11/22 10:11:34;;;;;;;16.05;11.70;;;7.60;41.30;;;;;;4992655;28;20398;-73
2021/11/22 10:14:02;;;;;;;16.52;11.07;;;7.60;40.90;;;;;;4992856;28;20456;-74
2021/11/22 10:16:28;;;;;;;20.27;12.70;;;7.50;39.60;;;;;;4989990;28;20456;-74
2021/11/22 10:18:55;;;;;;;20.20;13.20;;;7.40;41.20;;;;;;4992061;28;20416;-73
2021/11/22 10:21:28;;;;;;;18.88;13.02;;;7.30;41.30;;;;;;4986915;28;20427;-73
2021/11/22 10:24:00;;;;;;;20.10;14.10;;;7.50;41.60;;;;;;4980318;28;20561;-76
2021/11/22 10:26:26;;;;;;;19.27;13.60;;;7.50;41.60;;;;;;4991946;28;20394;-74
2021/11/22 10:28:55;;;;;;;20.67;12.98;;;7.40;42.10;;;;;;4987629;28;20404;-73
2021/11/22 10:31:27;;;;;;;19.55;13.57;;;7.50;40.90;;;;;;4990355;28;20911;-75
2021/11/22 10:33:55;;;;;;;18.05;13.75;;;7.60;40.70;;;;;;4980235;28;20419;-74
2021/11/22 10:36:23;;;;;;;18.20;13.27;;;7.70;40.60;;;;;;4978117;28;20437;-74
2021/11/22 10:38:57;;;;;;;17.83;11.10;;;7.90;39.80;;;;;;4978264;28;20714;-75
2021/11/22 10:41:27;;;;;;;13.40;9.57;;;7.90;38.70;;;;;;4993155;28;20410;-74
2021/11/22 10:43:55;;;;;;;16.70;10.82;;;7.80;37.80;;;;;;4986157;28;20417;-76
2021/11/22 10:46:45;;;;;;;21.00;12.35;;;7.60;38.80;;;;;;4999998;28;20414;-76
2021/11/22 10:49:28;;;;;;;17.73;10.40;;;7.50;39.90;;;;;;4991664;28;20394;-76
2021/11/22 10:52:11;;;;;;;15.38;9.80;;;7.60;39.30;;;;;;4999872;28;20410;-75
2021/11/22 10:54:54;;;;;;;13.85;9.95;;;7.60;38.40;;;;;;4987686;28;20509;-75
2021/11/22 10:57:20;;;;;;;16.48;9.52;;;7.60;38.70;;;;;;4981194;28;20437;-74
2021/11/22 10:59:46;;;;;;;13.63;10.20;;;7.70;37.70;;;;;;4991144;28;20420;-76
2021/11/22 11:02:11;;;;;;;16.15;10.82;;;7.80;37.80;;;;;;4993171;28;20421;-76
2021/11/22 11:04:43;;;;;;;13.68;9.93;;;7.90;38.30;;;;;;4986165;28;20411;-75
2021/11/22 11:07:09;;;;;;;13.83;9.60;;;8.10;36.30;;;;;;4997008;28;20405;-77
2021/11/22 11:09:35;;;;;;;16.50;9.97;;;8.20;36.30;;;;;;4995956;28;20422;-77
2021/11/22 11:12:04;;;;;;;16.33;10.07;;;8.20;37.50;;;;;;5001114;28;20401;-77
2021/11/22 11:14:32;;;;;;;19.05;10.45;;;8.40;36.20;;;;;;4998317;28;20410;-77
2021/11/22 11:17:09;;;;;;;16.80;11.57;;;8.60;35.60;;;;;;4984939;28;20423;-75
2021/11/22 11:19:36;;;;;;;20.17;13.15;;;8.60;35.10;;;;;;4978490;28;20387;-77
2021/11/22 11:22:02;;;;;;;17.35;11.55;;;8.50;36.40;;;;;;4977920;28;20879;-77
2021/11/22 11:24:28;;;;;;;21.60;13.10;;;8.30;35.70;;;;;;4976451;28;20400;-77
2021/11/22 11:26:54;;;;;;;16.52;10.73;;;8.10;36.70;;;;;;4977259;28;20720;-77
2021/11/22 11:29:20;;;;;;;20.13;12.20;;;7.90;36.20;;;;;;4977276;28;20718;-77
2021/11/22 11:31:46;;;;;;;17.20;11.20;;;7.90;36.90;;;;;;4975246;28;20443;-77
2021/11/22 11:34:13;;;;;;;15.40;11.23;;;7.90;36.90;;;;;;4976671;28;20404;-78
2021/11/22 11:36:53;;;;;;;15.88;10.43;;;7.90;36.30;;;;;;4992206;28;20415;-76
2021/11/22 11:39:36;;;;;;;17.35;11.63;;;8.00;35.70;;;;;;4977474;28;20761;-76
2021/11/22 11:42:20;;;;;;;15.90;11.30;;;8.10;36.00;;;;;;4977287;28;20399;-78
2021/11/22 11:45:03;;;;;;;11.77;8.50;;;8.20;33.90;;;;;;4975125;28;20499;-77
2021/11/22 11:47:40;;;;;;;13.90;8.93;;;8.20;32.40;;;;;;4975996;28;20760;-79
2021/11/22 11:50:21;;;;;;;13.07;9.20;;;8.20;33.50;;;;;;4977461;28;20440;-77
2021/11/22 11:52:59;;;;;;;13.57;9.45;;;8.20;33.20;;;;;;4976640;28;20412;-77
2021/11/22 11:55:25;;;;;;;14.13;8.65;;;8.30;33.30;;;;;;4982375;28;20424;-78
2021/11/22 11:58:25;;;;;;;15.18;8.82;;;8.30;32.90;;;;;;4997256;28;20382;-75
2021/11/22 12:00:54;;;;;;;18.67;10.48;;;8.20;32.60;;;;;;4996542;28;20383;-77
2021/11/22 12:03:20;;;;;;;15.52;10.70;;;8.10;34.50;;;;;;5001799;28;20387;-77
2021/11/22 12:05:48;;;;;;;20.55;11.10;;;7.90;34.70;;;;;;4995026;28;20402;-75
2021/11/22 12:08:30;;;;;;;15.13;9.98;;;7.90;34.80;;;;;;4991533;28;20927;-76
2021/11/22 12:11:01;;;;;;;13.97;8.40;;;7.80;35.30;;;;;;4978770;28;20506;-77
2021/11/22 12:13:57;;;;;;;11.80;7.35;;;7.90;33.40;;;;;;4992500;28;20443;-77
2021/11/22 12:16:43;;;;;;;12.13;5.85;;;7.90;32.70;;;;;;4986242;28;20468;-77
2021/11/22 12:19:34;;;;;;;11.23;4.97;;;8.00;31.20;;;;;;4998422;28;20514;-76
2021/11/22 12:22:08;;;;;;;7.90;5.20;;;8.00;30.50;;;;;;4980673;28;20408;-76
2021/11/22 12:24:39;;;;;;;9.88;5.70;;;8.00;31.00;;;;;;4986046;28;20394;-76
2021/11/22 12:27:35;;;;;;;10.70;5.78;;;8.00;31.60;;;;;;4980275;28;20479;-76
2021/11/22 12:30:27;;;;;;;9.90;6.30;;;8.00;31.90;;;;;;4974067;28;20412;-77
2021/11/22 12:32:54;;;;;;;8.02;5.50;;;8.00;31.30;;;;;;4978193;28;20833;-76
2021/11/22 12:35:36;;;;;;;8.13;5.00;;;8.10;31.30;;;;;;4976876;28;20765;-77
2021/11/22 12:38:20;;;;;;;8.02;5.10;;;8.10;31.00;;;;;;4976628;28;20406;-76
2021/11/22 12:40:48;;;;;;;6.80;4.85;;;8.20;30.60;;;;;;4978784;28;20388;-76
2021/11/22 12:43:14;;;;;;;8.38;6.10;;;8.20;30.70;;;;;;4991927;28;20895;-76
2021/11/22 12:45:57;;;;;;;9.48;5.32;;;8.20;30.60;;;;;;4995149;28;20406;-76
2021/11/22 12:48:32;;;;;;;8.98;4.97;;;8.20;31.00;;;;;;5002579;28;20396;-77